Aegean Navigator — SWBI — position and weather

sailwx.info

Track history (hours):
 
Tides and Currents Weather Stations Pressure Air Temp Water Temp Dewpoint Dewpoint Depression Visibility Wind Speed Wind Dir Waves Ship Positions

Aegean Navigator

Last reported at 2015-Jul-01 11:33 UTC. Time now 2015-Jul-01 12:02 UTC.
Position N 43°12' E 005°02'.

Length 274 m; draft 15.4 m.

Type: Tanker. MMSI: 240634000.

Date/timePositionNaut miles runAvg speedWind from/ knotsBaromVisibWave heightAir tempDewpointWater temp
2015-Jul-01 11:33N 43°12' E 005°02'1211.9
2015-Jul-01 10:33N 43°01' E 005°02'1211.9
2015-Jul-01 09:33N 42°49' E 005°00'1212.1
2015-Jul-01 08:32N 42°36' E 004°59'1212.2
2015-Jul-01 07:33N 42°25' E 004°58'1212.2
2015-Jul-01 06:33N 42°12' E 004°57'1212.2
2015-Jul-01 05:33N 42°00' E 004°55'1111.4
2015-Jul-01 04:33N 41°51' E 004°46'1211.8
2015-Jul-01 03:33N 41°43' E 004°35'1211.9
2015-Jul-01 02:33N 41°35' E 004°23'1212.0
2015-Jul-01 01:33N 41°26' E 004°12'1212.0
2015-Jul-01 00:33N 41°18' E 004°00'1312.0
2015-Jun-30 23:29N 41°09' E 003°48'1112.1
2015-Jun-30 22:32N 41°01' E 003°37'1211.8
2015-Jun-30 21:32N 40°53' E 003°26'1211.9
2015-Jun-30 20:33N 40°45' E 003°14'1212.0
2015-Jun-30 19:33N 40°37' E 003°03'1212.1
2015-Jun-30 18:33N 40°28' E 002°52'1212.3
2015-Jun-30 17:33N 40°20' E 002°40'1212.4
2015-Jun-30 16:33N 40°11' E 002°28'1212.4
2015-Jun-30 15:33N 40°03' E 002°16'1212.2
2015-Jun-30 14:33N 39°54' E 002°05'1211.8
2015-Jun-30 13:33N 39°46' E 001°54'1211.8
2015-Jun-30 12:33N 39°38' E 001°43'1212.0
2015-Jun-30 11:33N 39°30' E 001°31'1212.0
2015-Jun-30 10:33N 39°21' E 001°20'1212.1
2015-Jun-30 09:33N 39°13' E 001°09'1212.1
2015-Jun-30 08:34N 39°02' E 001°02'1413.5
2015-Jun-30 07:31N 38°49' E 000°57'1111.9
2015-Jun-30 06:33N 38°38' E 000°52'1211.8
2015-Jun-30 05:33N 38°27' E 000°48'1211.8
2015-Jun-30 04:33N 38°15' E 000°43'1211.9
2015-Jun-30 03:33N 38°04' E 000°39'1212.5
2015-Jun-30 02:33N 37°52' E 000°34'1312.5
2015-Jun-30 01:33N 37°40' E 000°29'1212.4
2015-Jun-30 00:33N 37°28' E 000°25'1212.3
2015-Jun-29 23:33N 37°17' E 000°20'1212.1
2015-Jun-29 22:33N 37°05' E 000°15'1212.3
2015-Jun-29 21:33N 36°53' E 000°11'1212.2
2015-Jun-29 20:34N 36°42' E 000°06'1212.0
2015-Jun-29 19:33N 36°30' E 000°02'1211.7
2015-Jun-29 18:33N 36°19' W 000°02'1212.0
2015-Jun-29 17:33N 36°08' W 000°08'1211.7
2015-Jun-29 16:33N 35°57' W 000°12'8 7.6
2015-Jun-29 15:33N 35°49' W 000°15'0 0.1
2015-Jun-29 13:32N 35°49' W 000°15'0 0.0
2015-Jun-29 12:15N 35°49' W 000°15'0 0.0
2015-Jun-29 11:33N 35°49' W 000°15'0 0.0
2015-Jun-29 10:33N 35°49' W 000°15'0 0.0
2015-Jun-29 09:26N 35°49' W 000°15'0 0.0
2015-Jun-29 08:32N 35°49' W 000°15'0 0.0
2015-Jun-29 06:26N 35°49' W 000°15'0 0.0
2015-Jun-29 05:21N 35°49' W 000°15'0 0.0
2015-Jun-28 19:14N 35°49' W 000°15'0 0.0
2015-Jun-28 17:33N 35°49' W 000°15'0 0.0
2015-Jun-28 16:33N 35°49' W 000°15'0 0.0
2015-Jun-28 15:26N 35°49' W 000°15'0 0.0
2015-Jun-28 14:21N 35°49' W 000°15'0 0.0
2015-Jun-28 13:27N 35°49' W 000°15'0 0.0
2015-Jun-28 12:21N 35°49' W 000°15'0 0.0
2015-Jun-28 11:33N 35°49' W 000°15'0 0.0
2015-Jun-27 19:14N 35°49' W 000°15'0 0.0
2015-Jun-27 18:26N 35°49' W 000°15'0 0.0
2015-Jun-27 17:32N 35°49' W 000°15'0 0.0
2015-Jun-27 16:20N 35°49' W 000°15'0 0.0
2015-Jun-27 14:14N 35°49' W 000°15'0 0.0
2015-Jun-27 13:27N 35°49' W 000°15'0 0.1
2015-Jun-27 12:33N 35°49' W 000°15'1 1.5
2015-Jun-27 11:34N 35°51' W 000°15'0 0.3
2015-Jun-27 10:33N 35°51' W 000°15'7 7.4
2015-Jun-27 09:33N 35°58' W 000°11'1313.3
2015-Jun-27 08:34N 36°11' W 000°11'6 6.4
2015-Jun-27 07:34N 36°17' W 000°13'1 0.6
2015-Jun-27 06:33N 36°17' W 000°13'1 0.5
2015-Jun-27 04:20N 36°16' W 000°12'0 0.5
2015-Jun-27 03:33N 36°16' W 000°11'0 0.4
2015-Jun-27 02:33N 36°15' W 000°11'0 0.3
2015-Jun-27 01:33N 36°15' W 000°10'0 0.3
2015-Jun-27 00:34N 36°15' W 000°10'0 0.4
2015-Jun-26 23:34N 36°15' W 000°10'3 2.7
2015-Jun-26 22:34N 36°16' W 000°13'1110.9
2015-Jun-26 21:33N 36°24' W 000°23'0 0.4
2015-Jun-26 20:33N 36°23' W 000°22'0 0.2
2015-Jun-26 19:33N 36°23' W 000°22'1 0.4
2015-Jun-26 18:06N 36°23' W 000°22'0 0.5
2015-Jun-26 17:33N 36°22' W 000°22'1 0.6
2015-Jun-26 16:33N 36°22' W 000°22'1 0.7
2015-Jun-26 15:34N 36°21' W 000°21'1 0.8
2015-Jun-26 14:33N 36°21' W 000°20'1 0.8
2015-Jun-26 13:33N 36°20' W 000°20'1 0.7
2015-Jun-26 12:34N 36°20' W 000°19'1 0.7
2015-Jun-26 11:33N 36°19' W 000°18'1 0.6
2015-Jun-26 10:33N 36°19' W 000°18'1 0.5
2015-Jun-26 09:34N 36°19' W 000°17'1 0.5
2015-Jun-26 08:29N 36°18' W 000°17'0 0.5
2015-Jun-26 07:32N 36°18' W 000°17'0 0.4
2015-Jun-26 06:34N 36°17' W 000°16'0 0.4
2015-Jun-26 05:34N 36°17' W 000°16'0 0.4
2015-Jun-26 04:33N 36°17' W 000°16'1 0.5
2015-Jun-26 03:30N 36°16' W 000°15'1 0.6
2015-Jun-26 02:33N 36°16' W 000°15'1 0.6
2015-Jun-26 01:34N 36°15' W 000°15'1 0.6
2015-Jun-26 00:33N 36°15' W 000°14'1 0.7
2015-Jun-25 23:33N 36°14' W 000°13'3 3.0
2015-Jun-25 22:33N 36°12' W 000°13'9 9.4
2015-Jun-25 21:34N 36°02' W 000°13'1 1.0
2015-Jun-25 20:33N 36°03' W 000°13'1 1.2
2015-Jun-25 19:33N 36°04' W 000°13'1 1.2
2015-Jun-25 18:33N 36°06' W 000°13'1 1.1
2015-Jun-25 17:33N 36°07' W 000°13'1 1.2
2015-Jun-25 16:33N 36°08' W 000°13'1 1.1
2015-Jun-25 15:33N 36°09' W 000°13'1 1.0
2015-Jun-25 14:33N 36°10' W 000°13'1 0.8
2015-Jun-25 13:33N 36°11' W 000°13'1 0.9
2015-Jun-25 12:34N 36°12' W 000°14'14 0.9
2015-Jun-24 20:29N 36°04' E 000°01'0 0.3
2015-Jun-24 19:33N 36°04' E 000°00'0 0.3
2015-Jun-24 18:30N 36°04' W 000°00'3 0.7
2015-Jun-24 14:32N 36°05' W 000°03'17 2.8
2015-Jun-24 08:27N 36°21' E 000°04'16 1.3
2015-Jun-23 19:30N 36°06' W 000°03'1 1.7
2015-Jun-23 19:05N 36°06' W 000°04'194 8.2
2015-Jun-22 19:33N 37°08' E 003°44'1111.0
2015-Jun-22 18:33N 37°09' E 003°58'1110.7
2015-Jun-22 17:31N 37°10' E 004°12'1110.6
2015-Jun-22 16:27N 37°12' E 004°26'910.6
2015-Jun-22 15:33N 37°13' E 004°38'1010.3
2015-Jun-22 14:33N 37°14' E 004°50'1010.0
2015-Jun-22 13:34N 37°15' E 005°03'10 9.8
2015-Jun-22 12:33N 37°16' E 005°15'1010.4
2015-Jun-22 11:34N 37°18' E 005°28'1310.8
2015-Jun-22 10:24N 37°19' E 005°44'910.2
2015-Jun-22 09:33N 37°20' E 005°54'  
Track history (hours):
 
Tides and Currents Weather Stations Pressure Air Temp Water Temp Dewpoint Dewpoint Depression Visibility Wind Speed Wind Dir Waves Ship Positions

Aegean Navigator

Last reported at 2015-Jul-01 11:33 UTC. Time now 2015-Jul-01 12:02 UTC.
Position N 43°12' E 005°02'.

Length 274 m; draft 15.4 m.

Type: Tanker. MMSI: 240634000.

Date/timePositionNaut miles runAvg speedWind from/ knotsBaromVisibWave heightAir tempDewpointWater temp
2015-Jul-01 11:33N 43°12' E 005°02'1211.9
2015-Jul-01 10:33N 43°01' E 005°02'1211.9
2015-Jul-01 09:33N 42°49' E 005°00'1212.1
2015-Jul-01 08:32N 42°36' E 004°59'1212.2
2015-Jul-01 07:33N 42°25' E 004°58'1212.2
2015-Jul-01 06:33N 42°12' E 004°57'1212.2
2015-Jul-01 05:33N 42°00' E 004°55'1111.4
2015-Jul-01 04:33N 41°51' E 004°46'1211.8
2015-Jul-01 03:33N 41°43' E 004°35'1211.9
2015-Jul-01 02:33N 41°35' E 004°23'1212.0
2015-Jul-01 01:33N 41°26' E 004°12'1212.0
2015-Jul-01 00:33N 41°18' E 004°00'1312.0
2015-Jun-30 23:29N 41°09' E 003°48'1112.1
2015-Jun-30 22:32N 41°01' E 003°37'1211.8
2015-Jun-30 21:32N 40°53' E 003°26'1211.9
2015-Jun-30 20:33N 40°45' E 003°14'1212.0
2015-Jun-30 19:33N 40°37' E 003°03'1212.1
2015-Jun-30 18:33N 40°28' E 002°52'1212.3
2015-Jun-30 17:33N 40°20' E 002°40'1212.4
2015-Jun-30 16:33N 40°11' E 002°28'1212.4
2015-Jun-30 15:33N 40°03' E 002°16'1212.2
2015-Jun-30 14:33N 39°54' E 002°05'1211.8
2015-Jun-30 13:33N 39°46' E 001°54'1211.8
2015-Jun-30 12:33N 39°38' E 001°43'1212.0
2015-Jun-30 11:33N 39°30' E 001°31'1212.0
2015-Jun-30 10:33N 39°21' E 001°20'1212.1
2015-Jun-30 09:33N 39°13' E 001°09'1212.1
2015-Jun-30 08:34N 39°02' E 001°02'1413.5
2015-Jun-30 07:31N 38°49' E 000°57'1111.9
2015-Jun-30 06:33N 38°38' E 000°52'1211.8
2015-Jun-30 05:33N 38°27' E 000°48'1211.8
2015-Jun-30 04:33N 38°15' E 000°43'1211.9
2015-Jun-30 03:33N 38°04' E 000°39'1212.5
2015-Jun-30 02:33N 37°52' E 000°34'1312.5
2015-Jun-30 01:33N 37°40' E 000°29'1212.4
2015-Jun-30 00:33N 37°28' E 000°25'1212.3
2015-Jun-29 23:33N 37°17' E 000°20'1212.1
2015-Jun-29 22:33N 37°05' E 000°15'1212.3
2015-Jun-29 21:33N 36°53' E 000°11'1212.2
2015-Jun-29 20:34N 36°42' E 000°06'1212.0
2015-Jun-29 19:33N 36°30' E 000°02'1211.7
2015-Jun-29 18:33N 36°19' W 000°02'1212.0
2015-Jun-29 17:33N 36°08' W 000°08'1211.7
2015-Jun-29 16:33N 35°57' W 000°12'8 7.6
2015-Jun-29 15:33N 35°49' W 000°15'0 0.1
2015-Jun-29 13:32N 35°49' W 000°15'0 0.0
2015-Jun-29 12:15N 35°49' W 000°15'0 0.0
2015-Jun-29 11:33N 35°49' W 000°15'0 0.0
2015-Jun-29 10:33N 35°49' W 000°15'0 0.0
2015-Jun-29 09:26N 35°49' W 000°15'0 0.0
2015-Jun-29 08:32N 35°49' W 000°15'0 0.0
2015-Jun-29 06:26N 35°49' W 000°15'0 0.0
2015-Jun-29 05:21N 35°49' W 000°15'0 0.0
2015-Jun-28 19:14N 35°49' W 000°15'0 0.0
2015-Jun-28 17:33N 35°49' W 000°15'0 0.0
2015-Jun-28 16:33N 35°49' W 000°15'0 0.0
2015-Jun-28 15:26N 35°49' W 000°15'0 0.0
2015-Jun-28 14:21N 35°49' W 000°15'0 0.0
2015-Jun-28 13:27N 35°49' W 000°15'0 0.0
2015-Jun-28 12:21N 35°49' W 000°15'0 0.0
2015-Jun-28 11:33N 35°49' W 000°15'0 0.0
2015-Jun-27 19:14N 35°49' W 000°15'0 0.0
2015-Jun-27 18:26N 35°49' W 000°15'0 0.0
2015-Jun-27 17:32N 35°49' W 000°15'0 0.0
2015-Jun-27 16:20N 35°49' W 000°15'0 0.0
2015-Jun-27 14:14N 35°49' W 000°15'0 0.0
2015-Jun-27 13:27N 35°49' W 000°15'0 0.1
2015-Jun-27 12:33N 35°49' W 000°15'1 1.5
2015-Jun-27 11:34N 35°51' W 000°15'0 0.3
2015-Jun-27 10:33N 35°51' W 000°15'7 7.4
2015-Jun-27 09:33N 35°58' W 000°11'1313.3
2015-Jun-27 08:34N 36°11' W 000°11'6 6.4
2015-Jun-27 07:34N 36°17' W 000°13'1 0.6
2015-Jun-27 06:33N 36°17' W 000°13'1 0.5
2015-Jun-27 04:20N 36°16' W 000°12'0 0.5
2015-Jun-27 03:33N 36°16' W 000°11'0 0.4
2015-Jun-27 02:33N 36°15' W 000°11'0 0.3
2015-Jun-27 01:33N 36°15' W 000°10'0 0.3
2015-Jun-27 00:34N 36°15' W 000°10'0 0.4
2015-Jun-26 23:34N 36°15' W 000°10'3 2.7
2015-Jun-26 22:34N 36°16' W 000°13'1110.9
2015-Jun-26 21:33N 36°24' W 000°23'0 0.4
2015-Jun-26 20:33N 36°23' W 000°22'0 0.2
2015-Jun-26 19:33N 36°23' W 000°22'1 0.4
2015-Jun-26 18:06N 36°23' W 000°22'0 0.5
2015-Jun-26 17:33N 36°22' W 000°22'1 0.6
2015-Jun-26 16:33N 36°22' W 000°22'1 0.7
2015-Jun-26 15:34N 36°21' W 000°21'1 0.8
2015-Jun-26 14:33N 36°21' W 000°20'1 0.8
2015-Jun-26 13:33N 36°20' W 000°20'1 0.7
2015-Jun-26 12:34N 36°20' W 000°19'1 0.7
2015-Jun-26 11:33N 36°19' W 000°18'1 0.6
2015-Jun-26 10:33N 36°19' W 000°18'1 0.5
2015-Jun-26 09:34N 36°19' W 000°17'1 0.5
2015-Jun-26 08:29N 36°18' W 000°17'0 0.5
2015-Jun-26 07:32N 36°18' W 000°17'0 0.4
2015-Jun-26 06:34N 36°17' W 000°16'0 0.4
2015-Jun-26 05:34N 36°17' W 000°16'0 0.4
2015-Jun-26 04:33N 36°17' W 000°16'1 0.5
2015-Jun-26 03:30N 36°16' W 000°15'1 0.6
2015-Jun-26 02:33N 36°16' W 000°15'1 0.6
2015-Jun-26 01:34N 36°15' W 000°15'1 0.6
2015-Jun-26 00:33N 36°15' W 000°14'1 0.7
2015-Jun-25 23:33N 36°14' W 000°13'3 3.0
2015-Jun-25 22:33N 36°12' W 000°13'9 9.4
2015-Jun-25 21:34N 36°02' W 000°13'1 1.0
2015-Jun-25 20:33N 36°03' W 000°13'1 1.2
2015-Jun-25 19:33N 36°04' W 000°13'1 1.2
2015-Jun-25 18:33N 36°06' W 000°13'1 1.1
2015-Jun-25 17:33N 36°07' W 000°13'1 1.2
2015-Jun-25 16:33N 36°08' W 000°13'1 1.1
2015-Jun-25 15:33N 36°09' W 000°13'1 1.0
2015-Jun-25 14:33N 36°10' W 000°13'1 0.8
2015-Jun-25 13:33N 36°11' W 000°13'1 0.9
2015-Jun-25 12:34N 36°12' W 000°14'14 0.9
2015-Jun-24 20:29N 36°04' E 000°01'0 0.3
2015-Jun-24 19:33N 36°04' E 000°00'0 0.3
2015-Jun-24 18:30N 36°04' W 000°00'3 0.7
2015-Jun-24 14:32N 36°05' W 000°03'17 2.8
2015-Jun-24 08:27N 36°21' E 000°04'16 1.3
2015-Jun-23 19:30N 36°06' W 000°03'1 1.7
2015-Jun-23 19:05N 36°06' W 000°04'194 8.2
2015-Jun-22 19:33N 37°08' E 003°44'1111.0
2015-Jun-22 18:33N 37°09' E 003°58'1110.7
2015-Jun-22 17:31N 37°10' E 004°12'1110.6
2015-Jun-22 16:27N 37°12' E 004°26'910.6
2015-Jun-22 15:33N 37°13' E 004°38'1010.3
2015-Jun-22 14:33N 37°14' E 004°50'1010.0
2015-Jun-22 13:34N 37°15' E 005°03'10 9.8
2015-Jun-22 12:33N 37°16' E 005°15'1010.4
2015-Jun-22 11:34N 37°18' E 005°28'1310.8
2015-Jun-22 10:24N 37°19' E 005°44'910.2
2015-Jun-22 09:33N 37°20' E 005°54'  

Dump ship's entire track history